Time;durP1;ratioP1;P1;durP2;ratioP2;P2;SDS_P1;SDS_P2;PMS_P1;PMS_P2;Temp;Humidity;BMP_temperature;BMP_pressure;BME280_temperature;BME280_humidity;BME280_pressure;Samples;Min_cycle;Max_cycle;Signal;HPM_P1;HPM_P2
2022/05/15 00:01:47;;;;;;;6.85;4.10;;;;;;;19.87;100.00;100065.44;5098872;23;23280;-71
2022/05/15 00:04:12;;;;;;;6.82;4.00;;;;;;;20.13;100.00;100097.31;4327287;28;10000718;-69
2022/05/15 00:06:37;;;;;;;4.57;3.80;;;;;;;19.94;100.00;100042.66;5010400;28;20034;-69
2022/05/15 00:09:03;;;;;;;5.95;3.50;;;;;;;19.91;100.00;100076.41;5011202;28;20037;-68
2022/05/15 00:11:29;;;;;;;5.38;3.95;;;;;;;19.87;100.00;100043.06;5030094;28;20519;-69
2022/05/15 00:13:57;;;;;;;7.18;4.47;;;;;;;19.63;100.00;100033.50;5030118;28;20033;-70
2022/05/15 00:16:24;;;;;;;5.97;4.45;;;;;;;19.52;100.00;100051.41;5027860;28;20036;-69
2022/05/15 00:18:50;;;;;;;8.23;4.80;;;;;;;19.61;100.00;100080.00;5029614;28;20393;-70
2022/05/15 00:21:17;;;;;;;8.38;4.90;;;;;;;19.41;100.00;100053.84;5029776;28;20037;-69
2022/05/15 00:23:43;;;;;;;5.85;4.53;;;;;;;19.91;100.00;100108.19;5029078;28;20033;-70
2022/05/15 00:26:09;;;;;;;8.35;5.18;;;;;;;19.78;100.00;100102.19;5027784;28;20040;-70
2022/05/15 00:28:34;;;;;;;8.70;5.47;;;;;;;19.64;100.00;100092.75;5028506;28;20108;-70
2022/05/15 00:31:00;;;;;;;9.73;5.43;;;;;;;19.68;100.00;100094.19;5029276;28;20406;-69
2022/05/15 00:33:25;;;;;;;10.32;5.47;;;;;;;19.68;100.00;100085.63;5027987;28;20088;-69
2022/05/15 00:35:52;;;;;;;7.43;6.03;;;;;;;19.81;100.00;100102.81;5028865;28;20029;-69
2022/05/15 00:38:18;;;;;;;9.35;5.80;;;;;;;19.48;100.00;100060.25;5027662;28;20519;-70
2022/05/15 00:40:46;;;;;;;10.00;6.38;;;;;;;19.54;100.00;100086.50;5029191;28;20168;-69
2022/05/15 00:43:34;;;;;;;12.65;6.20;;;;;;;19.50;100.00;100102.25;5029090;28;20145;-69
2022/05/15 00:46:00;;;;;;;11.88;6.70;;;;;;;19.30;100.00;100107.78;5028274;28;20037;-69
2022/05/15 00:48:25;;;;;;;12.77;6.63;;;;;;;18.99;100.00;100073.56;5027156;28;20068;-68
2022/05/15 00:50:51;;;;;;;10.85;7.15;;;;;;;18.95;100.00;100091.91;5027105;28;20467;-69
2022/05/15 00:53:17;;;;;;;11.48;6.90;;;;;;;19.25;100.00;100109.84;5027824;28;20033;-68
2022/05/15 00:55:49;;;;;;;14.57;6.70;;;;;;;18.72;100.00;100018.56;5027366;28;20114;-68
2022/05/15 00:58:18;;;;;;;;;;;;;;;19.14;100.00;100114.78;5026849;28;20033;-68
2022/05/15 01:00:44;;;;;;;14.57;8.23;;;;;;;19.21;100.00;100116.09;5027122;28;19917;-69
2022/05/15 01:03:18;;;;;;;13.05;8.15;;;;;;;18.71;100.00;100057.31;5027918;28;20057;-68
2022/05/15 01:05:50;;;;;;;15.00;7.82;;;;;;;19.22;100.00;100117.75;5028984;28;20569;-69
2022/05/15 01:08:15;;;;;;;14.10;8.23;;;;;;;18.81;100.00;100079.03;5034971;28;20021;-69
2022/05/15 01:10:46;;;;;;;17.10;8.57;;;;;;;18.96;100.00;100078.91;5048575;28;20040;-69
2022/05/15 01:13:13;;;;;;;12.05;7.72;;;;;;;19.28;100.00;100118.19;5046718;28;20102;-69
2022/05/15 01:15:40;;;;;;;12.40;7.82;;;;;;;19.15;100.00;100096.69;5048352;28;20568;-69
2022/05/15 01:18:08;;;;;;;10.23;8.05;;;;;;;18.89;100.00;100075.06;5050566;28;20090;-70
2022/05/15 01:20:34;;;;;;;10.15;8.00;;;;;;;18.72;100.00;100048.66;5048396;28;20040;-69
2022/05/15 01:23:00;;;;;;;10.95;7.97;;;;;;;19.01;100.00;100071.72;5049928;28;20080;-69
2022/05/15 01:25:29;;;;;;;10.48;7.35;;;;;;;19.15;100.00;100067.50;5049992;28;20505;-69
2022/05/15 01:28:04;;;;;;;8.88;7.97;;;;;;;19.20;100.00;100111.84;5049574;28;20069;-69
2022/05/15 01:30:30;;;;;;;10.57;8.00;;;;;;;19.19;100.00;100076.69;5049597;28;20017;-69
2022/05/15 01:32:56;;;;;;;10.98;7.88;;;;;;;19.02;100.00;100099.16;5048615;28;20043;-69
2022/05/15 01:35:21;;;;;;;8.82;7.93;;;;;;;18.97;100.00;100054.81;5050006;28;20029;-69
2022/05/15 01:37:47;;;;;;;10.68;8.40;;;;;;;18.45;100.00;100006.53;5048728;28;20025;-69
2022/05/15 01:40:14;;;;;;;10.60;8.13;;;;;;;18.58;100.00;100036.59;5047592;28;20032;-68
2022/05/15 01:42:39;;;;;;;13.52;7.80;;;;;;;19.26;100.00;100107.16;5048612;28;20040;-69
2022/05/15 01:45:06;;;;;;;11.68;8.00;;;;;;;18.78;100.00;100058.59;5051923;28;20028;-69
2022/05/15 01:47:32;;;;;;;11.27;7.95;;;;;;;18.64;100.00;100010.47;5052155;28;20037;-69
2022/05/15 01:49:58;;;;;;;11.82;7.80;;;;;;;19.18;100.00;100108.53;5052902;28;20120;-69
2022/05/15 01:52:23;;;;;;;9.52;7.75;;;;;;;19.17;100.00;100101.75;5051451;28;20095;-69
2022/05/15 01:54:49;;;;;;;10.40;8.00;;;;;;;18.84;100.00;100053.06;5053187;28;20028;-69
2022/05/15 01:57:14;;;;;;;12.07;8.10;;;;;;;18.68;100.00;100016.25;5053004;28;20048;-69
2022/05/15 01:59:39;;;;;;;10.75;8.20;;;;;;;19.16;100.00;100095.75;5053441;28;20163;-69
2022/05/15 02:02:08;;;;;;;11.82;8.45;;;;;;;18.72;100.00;100026.31;5052007;28;20469;-69
2022/05/15 02:04:34;;;;;;;13.40;8.20;;;;;;;19.18;100.00;100091.31;5033984;28;20041;-69
2022/05/15 02:07:00;;;;;;;13.57;8.70;;;;;;;18.94;100.00;100044.69;5031568;28;20486;-69
2022/05/15 02:09:25;;;;;;;11.15;8.48;;;;;;;19.16;100.00;100092.34;5033022;28;20030;-69
2022/05/15 02:11:51;;;;;;;14.45;8.75;;;;;;;19.04;100.00;100078.44;5032670;28;20033;-68
2022/05/15 02:14:16;;;;;;;9.93;7.88;;;;;;;19.32;100.00;100096.47;5032470;28;20079;-69
2022/05/15 02:16:42;;;;;;;9.52;8.07;;;;;;;19.16;100.00;100102.63;5032067;28;20492;-69
2022/05/15 02:19:08;;;;;;;11.48;8.20;;;;;;;19.12;100.00;100102.00;5033549;28;20026;-69
2022/05/15 02:21:33;;;;;;;11.48;8.48;;;;;;;19.14;100.00;100107.91;5031469;28;20124;-69
2022/05/15 02:23:59;;;;;;;10.13;8.00;;;;;;;18.91;100.00;100065.50;5032346;28;20120;-70
2022/05/15 02:26:24;;;;;;;10.38;8.10;;;;;;;19.17;100.00;100117.19;5047683;28;20384;-69
2022/05/15 02:28:50;;;;;;;9.77;8.35;;;;;;;19.21;100.00;100108.38;5032739;28;20458;-69
2022/05/15 02:31:16;;;;;;;12.02;8.82;;;;;;;19.09;100.00;100109.09;5032527;28;20475;-69
2022/05/15 02:33:41;;;;;;;8.95;7.97;;;;;;;18.79;100.00;100078.28;5029798;28;20030;-69
2022/05/15 02:36:07;;;;;;;11.30;8.50;;;;;;;18.75;100.00;100072.50;5028909;28;20029;-69
2022/05/15 02:38:33;;;;;;;11.65;8.52;;;;;;;18.92;100.00;100135.88;5029915;28;20055;-69
2022/05/15 02:40:59;;;;;;;11.18;8.55;;;;;;;18.69;100.00;100075.44;5029822;28;20088;-69
2022/05/15 02:43:24;;;;;;;10.07;8.75;;;;;;;19.00;100.00;100126.78;5028623;28;20025;-69
2022/05/15 02:45:50;;;;;;;18.73;9.07;;;;;;;19.03;100.00;100126.59;5030088;28;20537;-69
2022/05/15 02:51:05;;;;;;;13.82;9.38;;;;;;;18.91;100.00;100122.19;5029482;28;20395;-68
2022/05/15 02:53:36;;;;;;;14.18;9.30;;;;;;;18.58;100.00;100089.88;5029477;28;20048;-68
2022/05/15 02:56:06;;;;;;;10.82;9.05;;;;;;;18.71;100.00;100121.72;5029533;28;20036;-68
2022/05/15 02:58:32;;;;;;;11.45;9.70;;;;;;;18.57;100.00;100108.81;5028665;28;20025;-69
2022/05/15 03:00:57;;;;;;;11.43;9.95;;;;;;;18.47;100.00;100074.22;5030150;28;20041;-69
2022/05/15 03:03:24;;;;;;;11.35;9.40;;;;;;;18.78;100.00;100131.56;5033530;28;20056;-69
2022/05/15 03:05:49;;;;;;;10.57;9.35;;;;;;;18.50;100.00;100105.75;5029938;28;20026;-69
2022/05/15 03:08:15;;;;;;;10.77;8.98;;;;;;;18.56;100.00;100128.56;5029481;28;20025;-68
2022/05/15 03:10:40;;;;;;;14.18;9.00;;;;;;;18.60;100.00;100142.13;5030014;28;20521;-69
2022/05/15 03:13:05;;;;;;;13.57;9.25;;;;;;;18.45;100.00;100123.22;5025905;28;20056;-68
2022/05/15 03:15:31;;;;;;;11.55;8.98;;;;;;;18.27;100.00;100080.50;5029027;28;20026;-68
2022/05/15 03:17:56;;;;;;;14.38;9.25;;;;;;;18.62;100.00;100143.66;5029700;28;20021;-69
2022/05/15 03:20:27;;;;;;;10.70;8.93;;;;;;;18.39;100.00;100107.25;5029400;28;20471;-69
2022/05/15 03:22:53;;;;;;;11.18;8.85;;;;;;;18.19;100.00;100105.84;5029295;28;20086;-68
2022/05/15 03:25:19;;;;;;;13.80;8.32;;;;;;;18.29;100.00;100096.69;5029277;28;20041;-69
2022/05/15 03:27:44;;;;;;;12.75;10.07;;;;;;;17.61;100.00;100112.59;5023620;28;20030;-68
2022/05/15 03:30:10;;;;;;;16.92;10.25;;;;;;;18.04;100.00;100148.69;5009528;28;20026;-69
2022/05/15 03:32:37;;;;;;;16.45;10.55;;;;;;;18.17;100.00;100139.41;5016229;28;20083;-69
2022/05/15 03:35:03;;;;;;;10.27;9.07;;;;;;;17.80;100.00;100083.19;5027070;28;20408;-68
2022/05/15 03:37:29;;;;;;;11.70;9.40;;;;;;;18.17;100.00;100139.41;5028927;28;20380;-69
2022/05/15 03:39:55;;;;;;;10.70;9.35;;;;;;;18.35;100.00;100147.81;5028641;28;20029;-69
2022/05/15 03:42:20;;;;;;;15.05;10.43;;;;;;;17.65;100.00;100116.66;5028429;28;20029;-70
2022/05/15 03:44:46;;;;;;;16.13;10.30;;;;;;;17.57;100.00;100100.81;5028756;28;20406;-69
2022/05/15 03:47:11;;;;;;;16.75;10.10;;;;;;;17.66;100.00;100154.31;5028541;28;20026;-70
2022/05/15 03:49:36;;;;;;;14.65;10.77;;;;;;;17.26;100.00;100114.44;5026664;28;20026;-69
2022/05/15 03:52:03;;;;;;;12.30;9.93;;;;;;;17.38;100.00;100094.97;5028588;28;20022;-69
2022/05/15 03:54:29;;;;;;;13.75;10.20;;;;;;;17.45;100.00;100104.00;5028771;28;20141;-69
2022/05/15 03:56:54;;;;;;;15.27;9.75;;;;;;;17.56;100.00;100104.28;5027401;28;20128;-69
2022/05/15 03:59:22;;;;;;;13.80;10.43;;;;;;;17.99;100.00;100178.19;5028699;28;20048;-68
2022/05/15 04:01:48;;;;;;;13.75;10.18;;;;;;;17.89;100.00;100167.56;5028249;28;20052;-69
2022/05/15 04:04:13;;;;;;;14.27;10.02;;;;;;;17.97;100.00;100174.84;5018613;28;20060;-69
2022/05/15 04:06:39;;;;;;;11.32;9.85;;;;;;;18.00;100.00;100169.56;5026531;28;20610;-70
2022/05/15 04:09:05;;;;;;;15.75;10.52;;;;;;;17.99;100.00;100173.03;5031557;28;20025;-68
2022/05/15 04:11:30;;;;;;;15.98;10.18;;;;;;;18.03;100.00;100123.06;5031952;28;20033;-68
2022/05/15 04:13:55;;;;;;;16.85;10.00;;;;;;;18.13;100.00;100122.47;5032048;28;20367;-69
2022/05/15 04:16:21;;;;;;;11.32;9.20;;;;;;;18.28;100.00;100133.66;5030893;28;20033;-68
2022/05/15 04:18:46;;;;;;;14.45;9.70;;;;;;;18.61;100.00;100174.69;5031350;28;20024;-69
2022/05/15 04:21:12;;;;;;;13.20;9.60;;;;;;;18.38;100.00;100142.47;5031564;28;20091;-69
2022/05/15 04:23:38;;;;;;;13.60;10.15;;;;;;;18.12;100.00;100131.09;5030211;28;20099;-68
2022/05/15 04:26:03;;;;;;;11.80;9.32;;;;;;;18.68;100.00;100184.53;5022846;28;20049;-69
2022/05/15 04:28:29;;;;;;;11.48;10.27;;;;;;;18.50;100.00;100126.34;5030190;28;20072;-68
2022/05/15 04:30:54;;;;;;;11.20;9.63;;;;;;;18.77;100.00;100181.44;5029924;28;20047;-68
2022/05/15 04:33:20;;;;;;;12.65;10.15;;;;;;;18.17;100.00;100084.50;5031211;28;20022;-69
2022/05/15 04:35:45;;;;;;;13.63;9.23;;;;;;;18.73;100.00;100177.38;5031556;28;20025;-68
2022/05/15 04:38:11;;;;;;;13.00;9.05;;;;;;;18.47;100.00;100166.91;5029992;28;20017;-69
2022/05/15 04:40:36;;;;;;;11.35;9.07;;;;;;;18.83;100.00;100173.34;5024597;28;20038;-69
2022/05/15 04:43:03;;;;;;;10.60;9.50;;;;;;;18.80;100.00;100176.09;5029950;28;20025;-69
2022/05/15 04:45:29;;;;;;;12.68;9.75;;;;;;;19.11;100.00;100169.13;5031151;28;20387;-69
2022/05/15 04:47:54;;;;;;;13.25;11.18;;;;;;;19.12;100.00;100175.94;5030952;28;20028;-68
2022/05/15 04:50:20;;;;;;;12.57;9.95;;;;;;;18.92;100.00;100133.31;5031296;28;20052;-68
2022/05/15 04:52:46;;;;;;;16.02;10.50;;;;;;;19.55;100.00;100181.00;5030811;28;20030;-67
2022/05/15 04:55:13;;;;;;;13.27;10.45;;;;;;;19.13;100.00;100172.44;5025082;28;20026;-68
2022/05/15 04:57:38;;;;;;;12.45;9.60;;;;;;;19.18;100.00;100124.84;5013438;28;20108;-69
2022/05/15 05:00:05;;;;;;;11.98;10.35;;;;;;;19.34;100.00;100173.75;5027165;28;20457;-69
2022/05/15 05:02:31;;;;;;;12.25;9.25;;;;;;;19.85;100.00;100189.44;5026990;28;20419;-68
2022/05/15 05:04:59;;;;;;;15.40;9.68;;;;;;;19.52;100.00;100139.09;5030771;28;20029;-69
2022/05/15 05:07:28;;;;;;;13.68;9.68;;;;;;;20.30;100.00;100196.03;5030899;28;20060;-68
2022/05/15 05:09:54;;;;;;;10.73;9.55;;;;;;;19.58;100.00;100092.28;5030734;28;20549;-68
2022/05/15 05:12:20;;;;;;;14.02;9.50;;;;;;;20.31;100.00;100200.28;5029193;28;20021;-68
2022/05/15 05:14:45;;;;;;;13.80;9.15;;;;;;;20.41;100.00;100178.09;5030658;28;20029;-68
2022/05/15 05:17:11;;;;;;;11.10;9.15;;;;;;;20.68;100.00;100191.78;5028107;28;20022;-70
2022/05/15 05:19:36;;;;;;;10.98;9.10;;;;;;;20.79;100.00;100187.66;5028291;28;20087;-70
2022/05/15 05:22:02;;;;;;;10.07;8.70;;;;;;;20.34;100.00;100107.09;5031030;28;20044;-69
2022/05/15 05:24:27;;;;;;;10.57;8.93;;;;;;;20.50;100.00;100156.81;5030566;28;20028;-69
2022/05/15 05:26:53;;;;;;;13.00;9.05;;;;;;;21.03;100.00;100145.50;5030482;28;20117;-69
2022/05/15 05:29:18;;;;;;;10.82;8.60;;;;;;;21.10;100.00;100195.03;5029494;28;20423;-71
2022/05/15 05:31:44;;;;;;;8.85;7.95;;;;;;;21.04;100.00;100161.84;5030486;28;20494;-72
2022/05/15 05:34:09;;;;;;;11.05;8.65;;;;;;;20.60;100.00;100113.94;5029452;28;20108;-70
2022/05/15 05:36:35;;;;;;;10.20;8.32;;;;;;;21.09;100.00;100189.06;5030899;28;20417;-70
2022/05/15 05:39:00;;;;;;;9.30;8.02;;;;;;;21.16;100.00;100187.69;5030561;28;20037;-70
2022/05/15 05:41:27;;;;;;;8.80;7.95;;;;;;;21.22;100.00;100179.53;5030379;28;20021;-70
2022/05/15 05:43:52;;;;;;;10.38;7.93;;;;;;;22.06;100.00;100210.72;5030633;28;20025;-70
2022/05/15 05:46:17;;;;;;;13.68;8.40;;;;;;;21.99;100.00;100191.34;5022312;28;20038;-71
2022/05/15 05:48:45;;;;;;;10.88;7.93;;;;;;;21.74;100.00;100152.59;5030460;28;20029;-72
2022/05/15 05:51:15;;;;;;;13.73;8.60;;;;;;;21.78;100.00;100182.50;5029254;28;20021;-70
2022/05/15 05:53:41;;;;;;;8.95;8.05;;;;;;;22.26;100.00;100147.94;5030202;28;20505;-70
2022/05/15 05:56:06;;;;;;;9.30;8.30;;;;;;;22.46;100.00;100208.66;5030295;28;20034;-70
2022/05/15 05:58:32;;;;;;;10.60;8.65;;;;;;;21.94;100.00;100124.38;5029270;28;20380;-69
2022/05/15 06:00:57;;;;;;;8.80;7.85;;;;;;;22.81;100.00;100206.91;5030155;28;20482;-70
2022/05/15 06:06:06;;;;;;;8.85;7.90;;;;;;;23.51;100.00;100200.59;5030645;28;20175;-70
2022/05/15 06:08:32;;;;;;;9.23;8.00;;;;;;;22.88;100.00;100119.91;5022481;28;20116;-69
2022/05/15 06:10:57;;;;;;;10.43;7.78;;;;;;;23.38;100.00;100194.72;5029988;28;20013;-68
2022/05/15 06:13:25;;;;;;;8.27;7.10;;;;;;;23.67;100.00;100202.88;5029975;28;20469;-69
2022/05/15 06:15:51;;;;;;;8.52;7.07;;;;;;;23.65;100.00;100186.56;5030028;28;20131;-69
2022/05/15 06:18:17;;;;;;;9.45;7.63;;;;;;;23.79;100.00;100194.13;5029800;28;20495;-70
2022/05/15 06:20:42;;;;;;;8.70;7.10;;;;;;;24.09;100.00;100195.09;5030015;28;20026;-69
2022/05/15 06:23:07;;;;;;;7.45;6.47;;;;;;;23.34;100.00;100171.72;5028405;28;20467;-70
2022/05/15 06:25:33;;;;;;;10.20;6.63;;;;;;;23.58;100.00;100151.63;5028741;28;20553;-70
2022/05/15 06:27:58;;;;;;;11.45;6.65;;;;;;;24.07;100.00;100152.81;5028187;28;20471;-69
2022/05/15 06:30:24;;;;;;;6.50;5.90;;;;;;;24.07;100.00;100199.59;5030521;28;20146;-69
2022/05/15 06:32:49;;;;;;;29.17;6.72;;;;;;;24.17;100.00;100196.25;5032334;28;20403;-69
2022/05/15 06:35:15;;;;;;;17.15;7.20;;;;;;;23.53;100.00;100167.56;5033634;28;20453;-68
2022/05/15 06:37:42;;;;;;;7.95;6.32;;;;;;;24.00;100.00;100130.88;5032243;28;20131;-67
2022/05/15 06:40:09;;;;;;;12.30;6.70;;;;;;;24.72;100.00;100185.63;5033674;28;20032;-69
2022/05/15 06:42:35;;;;;;;10.10;6.85;;;;;;;24.60;100.00;100155.41;5031864;28;20049;-70
2022/05/15 06:45:00;;;;;;;12.05;6.32;;;;;;;24.39;100.00;100120.78;5033252;28;20447;-69
2022/05/15 06:47:26;;;;;;;7.45;6.60;;;;;;;24.51;100.00;100140.56;5032191;28;20025;-69
2022/05/15 06:49:52;;;;;;;7.35;6.50;;;;;;;24.52;100.00;100187.22;5033305;28;20026;-69
2022/05/15 06:52:18;;;;;;;7.82;6.18;;;;;;;24.53;100.00;100188.91;5033112;28;20036;-70
2022/05/15 06:54:43;;;;;;;7.95;6.35;;;;;;;24.83;100.00;100162.16;5033429;28;20025;-69
2022/05/15 06:59:53;;;;;;;7.47;6.13;;;;;;;25.02;100.00;100128.41;5033389;28;20045;-69
2022/05/15 07:02:18;;;;;;;7.25;6.10;;;;;;;24.73;100.00;100089.25;5032864;28;20041;-70
2022/05/15 07:04:43;;;;;;;11.30;5.90;;;;;;;25.40;100.00;100174.63;5032926;28;20482;-70
2022/05/15 07:07:09;;;;;;;6.32;5.72;;;;;;;25.04;100.00;100155.13;5032932;28;20025;-69
2022/05/15 07:09:36;;;;;;;6.78;5.90;;;;;;;25.68;100.00;100134.78;5031648;28;20083;-70
2022/05/15 07:12:03;;;;;;;9.70;6.80;;;;;;;25.25;100.00;100126.44;5031294;28;20032;-72
2022/05/15 10:10:24;;;;;;;7.03;6.32;;;;;;;27.90;76.94;100137.50;5106043;27;20372;-69
2022/05/15 10:13:00;;;;;;;8.52;6.00;;;;;;;28.91;73.80;100171.84;5085482;28;20036;-69
2022/05/15 10:15:32;;;;;;;8.48;6.55;;;;;;;29.14;70.89;100166.94;5067841;28;20031;-72
2022/05/15 10:18:03;;;;;;;5.70;5.10;;;;;;;28.98;71.74;100178.94;5077183;28;20452;-71
2022/05/15 10:20:34;;;;;;;6.20;5.57;;;;;;;28.77;69.55;100109.59;5087913;28;20024;-71
2022/05/15 10:23:15;;;;;;;6.10;5.50;;;;;;;29.32;69.68;100120.47;5088073;28;20089;-70
2022/05/15 10:25:50;;;;;;;6.60;4.82;;;;;;;29.09;68.76;100170.81;5087575;28;20042;-73
2022/05/15 10:28:27;;;;;;;8.38;5.07;;;;;;;29.42;69.04;100163.94;5087945;28;20043;-71
2022/05/15 10:31:02;;;;;;;6.70;5.30;;;;;;;29.76;68.13;100156.03;5088162;28;20089;-70
2022/05/15 10:33:32;;;;;;;7.20;5.35;;;;;;;29.37;65.62;100097.25;5067900;28;20059;-71
2022/05/15 10:36:03;;;;;;;8.40;5.30;;;;;;;29.35;69.24;100149.00;5080601;28;20028;-72
2022/05/15 10:38:47;;;;;;;7.63;5.10;;;;;;;30.16;66.18;100148.22;5084641;28;20490;-71
2022/05/15 10:41:40;;;;;;;6.03;5.07;;;;;;;29.31;67.68;100137.19;5087979;28;20085;-71
2022/05/15 10:44:16;;;;;;;7.18;4.68;;;;;;;30.02;63.40;100151.47;5077627;28;20437;-70
2022/05/15 10:47:16;;;;;;;10.80;6.57;;;;;;;28.28;70.65;100152.91;5087245;28;20036;-70
2022/05/15 10:49:47;;;;;;;7.22;5.72;;;;;;;27.34;72.66;100153.41;5087289;28;20036;-71
2022/05/15 10:52:23;;;;;;;5.63;4.97;;;;;;;27.87;72.25;100128.16;5087334;28;20042;-70
2022/05/15 10:58:20;;;;;;;8.18;5.45;;;;;;;28.04;73.62;100147.47;5080536;28;20044;-69
2022/05/15 11:00:53;;;;;;;10.02;5.43;;;;;;;27.66;73.34;100145.09;5067183;28;20079;-70
2022/05/15 11:03:40;;;;;;;6.05;5.45;;;;;;;27.77;73.21;100148.31;5080546;28;20024;-72
2022/05/15 11:06:08;;;;;;;8.57;5.70;;;;;;;27.01;74.62;100151.31;5077119;28;20025;-72
2022/05/15 11:08:44;;;;;;;6.22;5.63;;;;;;;27.43;76.99;100142.88;5074884;28;20059;-72
2022/05/15 11:11:17;;;;;;;7.90;5.57;;;;;;;27.16;74.55;100095.03;5106950;28;20401;-72
2022/05/15 11:14:04;;;;;;;8.45;5.60;;;;;;;27.28;73.73;100138.28;5088887;28;20448;-71
2022/05/15 11:16:29;;;;;;;7.20;5.40;;;;;;;27.37;73.55;100133.03;5088617;28;20027;-69
2022/05/15 11:19:04;;;;;;;6.32;5.50;;;;;;;27.63;73.06;100122.72;5107113;28;20404;-70
2022/05/15 11:21:51;;;;;;;6.72;4.93;;;;;;;28.06;69.49;100122.00;5073869;28;20020;-70
2022/05/15 11:24:32;;;;;;;7.32;5.25;;;;;;;28.11;70.07;100112.72;5073146;28;20111;-70
2022/05/15 11:27:06;;;;;;;6.25;5.20;;;;;;;27.38;68.30;100071.16;5065058;28;20458;-71
2022/05/15 11:29:36;;;;;;;5.90;5.40;;;;;;;27.12;70.02;100062.34;5082913;28;20094;-71
2022/05/15 11:32:31;;;;;;;5.90;5.30;;;;;;;27.88;68.08;100105.44;5082537;28;20107;-72
2022/05/15 11:35:17;;;;;;;8.18;5.50;;;;;;;27.52;71.22;100069.81;5064191;28;20122;-73
2022/05/15 11:37:53;;;;;;;8.13;5.38;;;;;;;28.07;74.80;100103.53;5064995;28;20031;-72
2022/05/15 11:40:35;;;;;;;5.75;5.25;;;;;;;27.16;72.20;100056.69;5065133;28;20081;-72
2022/05/15 11:43:33;;;;;;;6.68;5.30;;;;;;;27.47;74.04;100111.25;5065220;28;20125;-71
2022/05/15 11:46:09;;;;;;;7.50;4.93;;;;;;;27.15;74.04;100051.63;5064352;28;20024;-70
2022/05/15 11:48:38;;;;;;;6.40;5.80;;;;;;;27.09;76.53;100105.25;5063905;28;20027;-71
2022/05/15 11:51:12;;;;;;;8.05;5.65;;;;;;;27.61;75.56;100110.75;5082187;28;20027;-72
2022/05/15 11:54:03;;;;;;;9.20;5.68;;;;;;;27.60;75.89;100094.25;5081825;28;20017;-70
2022/05/15 11:56:54;;;;;;;5.80;5.30;;;;;;;27.37;74.62;100108.72;5082540;28;20030;-72
2022/05/15 11:59:28;;;;;;;6.07;5.50;;;;;;;26.92;78.49;100094.75;5081299;28;20456;-71
2022/05/15 12:01:57;;;;;;;5.43;4.93;;;;;;;26.67;77.44;100056.22;5074836;28;20274;-71
2022/05/15 12:04:35;;;;;;;8.63;4.85;;;;;;;27.18;79.54;100106.97;5093122;28;20034;-72
2022/05/15 12:07:00;;;;;;;6.28;5.18;;;;;;;27.08;78.24;100113.22;5074822;28;20028;-70
2022/05/15 12:09:32;;;;;;;5.78;5.18;;;;;;;27.11;79.85;100098.09;5092485;28;20114;-72
2022/05/15 12:12:23;;;;;;;5.55;4.97;;;;;;;26.89;79.50;100108.09;5074582;28;20405;-72
2022/05/15 12:31:11;;;;;;;9.40;5.70;;;;;;;28.69;67.46;100085.97;5066326;28;20627;-69
2022/05/15 12:33:40;;;;;;;13.25;5.80;;;;;;;28.15;69.18;100097.53;5065713;28;20106;-69
2022/05/15 12:36:32;;;;;;;9.38;5.97;;;;;;;27.78;70.10;100034.97;5048802;28;20437;-70
2022/05/15 12:38:57;;;;;;;;;;;;;;;28.53;70.72;100140.81;5048726;28;20029;-70
2022/05/15 12:41:32;;;;;;;13.95;7.68;;;;;;;26.47;100.00;100091.97;5054800;28;20317;-70
2022/05/15 12:44:00;;;;;;;10.45;7.78;;;;;;;25.20;100.00;100107.78;5047735;28;20029;-69
2022/05/15 12:46:57;;;;;;;11.65;7.70;;;;;;;25.03;100.00;100143.06;5045917;28;20112;-70
2022/05/15 12:49:36;;;;;;;13.23;8.60;;;;;;;24.17;100.00;100139.06;5038597;28;20037;-71
2022/05/15 12:52:18;;;;;;;10.65;8.32;;;;;;;24.17;100.00;100100.94;5066102;28;20036;-70
2022/05/15 12:54:54;;;;;;;9.60;8.65;;;;;;;24.33;100.00;100132.50;5065827;28;20479;-69
2022/05/15 12:57:19;;;;;;;9.55;8.55;;;;;;;23.85;100.00;100120.88;5067405;28;20037;-69
2022/05/15 12:59:48;;;;;;;9.23;8.32;;;;;;;23.48;100.00;100084.03;5065826;28;20395;-69
2022/05/15 13:02:20;;;;;;;10.20;7.97;;;;;;;23.31;100.00;100083.69;5066941;28;20407;-69
2022/05/15 13:04:49;;;;;;;8.90;8.10;;;;;;;23.52;100.00;100084.63;5065688;28;20035;-70
2022/05/15 13:07:15;;;;;;;8.25;7.63;;;;;;;24.23;100.00;100157.59;5066575;28;20091;-68
2022/05/15 13:09:41;;;;;;;9.10;7.65;;;;;;;23.51;100.00;100064.81;5065631;28;20053;-69
2022/05/15 13:12:13;;;;;;;8.48;7.60;;;;;;;23.68;100.00;100127.44;5056624;28;20422;-69
2022/05/15 13:14:46;;;;;;;9.07;8.15;;;;;;;24.01;100.00;100157.66;5064718;28;20025;-69
2022/05/15 13:17:13;;;;;;;9.60;8.60;;;;;;;23.88;100.00;100113.66;5057778;28;20040;-69
2022/05/15 13:19:48;;;;;;;9.00;8.15;;;;;;;23.38;100.00;100085.72;5066424;28;20033;-69
2022/05/15 13:22:18;;;;;;;9.57;8.45;;;;;;;23.45;100.00;100067.91;5066069;28;20112;-69
2022/05/15 13:24:43;;;;;;;9.80;8.85;;;;;;;23.37;100.00;100073.69;4357215;28;10000714;-71
2022/05/15 13:27:10;;;;;;;9.90;8.90;;;;;;;23.73;100.00;100143.44;5062879;28;20028;-71
2022/05/15 13:29:37;;;;;;;8.60;7.90;;;;;;;23.46;100.00;100161.22;5059841;28;20057;-70
2022/05/15 13:32:05;;;;;;;8.80;7.93;;;;;;;23.41;100.00;100144.34;5029485;28;20044;-69
2022/05/15 13:34:31;;;;;;;8.40;7.60;;;;;;;23.47;100.00;100151.66;5029607;28;20083;-70
2022/05/15 13:37:06;;;;;;;9.13;8.23;;;;;;;23.20;100.00;100124.28;5029295;28;20541;-69
2022/05/15 13:45:12;;;;;;;8.65;7.75;;;;;;;22.78;100.00;100124.97;5049435;28;20514;-69
2022/05/15 13:48:04;;;;;;;9.27;8.32;;;;;;;23.22;100.00;100174.28;5046657;28;20095;-69
2022/05/15 13:50:41;;;;;;;8.45;7.57;;;;;;;23.03;100.00;100121.34;5049267;28;20033;-69
2022/05/15 13:53:31;;;;;;;7.75;7.05;;;;;;;23.02;100.00;100176.75;5049121;28;20029;-69
2022/05/15 13:55:58;;;;;;;7.95;7.25;;;;;;;22.98;100.00;100164.97;5049120;28;20036;-69
2022/05/15 13:58:41;;;;;;;7.85;7.18;;;;;;;22.89;100.00;100137.97;5048949;28;20028;-69
2022/05/15 14:01:16;;;;;;;8.52;7.82;;;;;;;22.40;100.00;100135.59;5047154;28;20029;-69
2022/05/15 14:03:44;;;;;;;9.63;8.73;;;;;;;22.20;100.00;100135.44;5048742;28;20452;-69
2022/05/15 14:06:18;;;;;;;9.32;8.52;;;;;;;22.63;100.00;100201.31;5047469;28;20033;-68
2022/05/15 14:09:09;;;;;;;9.27;8.48;;;;;;;22.55;100.00;100198.44;5043448;28;20155;-68
2022/05/15 14:11:53;;;;;;;8.82;8.02;;;;;;;22.88;100.00;100198.56;5035350;28;20055;-70
2022/05/15 14:14:49;;;;;;;8.40;7.72;;;;;;;23.10;100.00;100180.44;5044445;28;20056;-70
2022/05/15 14:17:19;;;;;;;7.78;7.03;;;;;;;22.54;100.00;100186.41;5040130;28;20045;-69
2022/05/15 14:19:52;;;;;;;7.20;6.50;;;;;;;21.82;100.00;100078.66;5043865;28;20087;-69
2022/05/15 14:22:17;;;;;;;7.10;6.50;;;;;;;22.15;100.00;100138.34;5049045;28;20044;-71
2022/05/15 14:24:43;;;;;;;7.07;6.47;;;;;;;22.54;100.00;100177.81;5053608;28;20472;-71
2022/05/15 14:27:08;;;;;;;7.35;6.75;;;;;;;22.84;100.00;100206.69;5045369;28;20041;-70
2022/05/15 14:29:34;;;;;;;7.78;7.15;;;;;;;22.79;100.00;100139.59;5048621;28;20096;-70
2022/05/15 14:32:02;;;;;;;7.55;6.95;;;;;;;22.22;100.00;100124.00;5048179;28;20036;-70
2022/05/15 14:34:28;;;;;;;8.82;7.95;;;;;;;22.82;100.00;100164.50;5047785;28;20040;-70
2022/05/15 14:36:53;;;;;;;8.13;7.43;;;;;;;22.59;100.00;100121.31;5046551;28;20037;-69
2022/05/15 14:39:19;;;;;;;8.95;8.25;;;;;;;22.88;100.00;100174.38;5044130;28;20033;-69
2022/05/15 14:41:44;;;;;;;8.70;7.80;;;;;;;22.55;100.00;100125.88;5046680;28;20529;-70
2022/05/15 14:44:10;;;;;;;8.63;7.90;;;;;;;22.94;100.00;100192.06;5045400;28;20090;-69
2022/05/15 14:46:36;;;;;;;8.60;7.90;;;;;;;23.06;100.00;100183.34;5042793;28;20515;-69
2022/05/15 14:49:04;;;;;;;9.68;8.68;;;;;;;23.03;100.00;100178.41;5036746;28;20384;-70
2022/05/15 14:51:34;;;;;;;9.38;8.48;;;;;;;23.28;100.00;100168.63;5027905;28;20041;-69
2022/05/15 14:54:01;;;;;;;9.57;8.63;;;;;;;22.99;100.00;100184.78;5060044;28;20033;-69